createdAt,value
2022-10-05T00:03:11.059Z,90.02
2022-10-05T00:08:13.912Z,90.05
2022-10-05T00:13:25.535Z,90.34
2022-10-05T00:18:28.423Z,90.24
2022-10-05T00:23:33.069Z,90.33
2022-10-05T00:28:35.882Z,90.67
2022-10-05T00:33:38.777Z,91.11
2022-10-05T00:38:42.513Z,91.54
2022-10-05T00:44:17.370Z,91.42
2022-10-05T00:49:28.964Z,91.28
2022-10-05T00:54:47.739Z,91.71
2022-10-05T01:00:17.778Z,91.91
2022-10-05T01:05:40.123Z,92.13
2022-10-05T01:11:17.040Z,92.30
2022-10-05T01:16:33.695Z,92.24
2022-10-05T01:21:50.803Z,92.44
2022-10-05T01:27:19.207Z,92.75
2022-10-05T01:32:30.134Z,92.70
2022-10-05T01:38:03.824Z,92.79
2022-10-05T01:43:39.803Z,92.91
2022-10-05T01:49:06.569Z,93.04
2022-10-05T01:54:12.546Z,92.98
2022-10-05T01:59:50.470Z,93.09
2022-10-05T02:05:17.065Z,93.40
2022-10-05T02:10:37.616Z,93.91
2022-10-05T02:15:55.148Z,93.83
2022-10-05T02:21:00.359Z,93.84
2022-10-05T02:26:05.004Z,94.45
2022-10-05T02:31:14.591Z,94.85
2022-10-05T02:36:24.221Z,94.99
2022-10-05T02:41:32.753Z,95.37
2022-10-05T02:46:57.238Z,95.62
2022-10-05T02:52:29.151Z,95.63
2022-10-05T02:57:39.478Z,95.73
2022-10-05T03:03:13.517Z,95.89
2022-10-05T03:08:35.517Z,95.71
2022-10-05T03:13:56.448Z,95.66
2022-10-05T03:19:11.331Z,95.89
2022-10-05T03:24:52.635Z,95.80
2022-10-05T03:29:58.610Z,96.02
2022-10-05T03:35:33.344Z,96.40
2022-10-05T03:40:49.169Z,96.61
2022-10-05T03:46:15.032Z,96.51
2022-10-05T03:51:43.517Z,96.64
2022-10-05T03:56:46.434Z,96.79
2022-10-05T04:01:58.107Z,96.71
2022-10-05T04:07:01.827Z,96.74
2022-10-05T04:12:27.802Z,96.94
2022-10-05T04:17:46.682Z,96.79
2022-10-05T04:23:02.791Z,97.02
2022-10-05T04:28:31.209Z,97.19
2022-10-05T04:33:35.326Z,96.96
2022-10-05T04:38:49.093Z,96.92
2022-10-05T04:43:57.829Z,96.96
2022-10-05T04:49:24.898Z,97.19
2022-10-05T04:54:49.717Z,96.82
2022-10-05T04:59:52.518Z,96.64
2022-10-05T05:05:33.728Z,96.64
2022-10-05T05:11:17.365Z,96.53
2022-10-05T05:16:42.935Z,96.29
2022-10-05T05:22:00.712Z,96.04
2022-10-05T05:27:41.159Z,95.65
2022-10-05T05:33:13.344Z,95.20
2022-10-05T05:38:34.407Z,94.72
2022-10-05T05:44:09.228Z,94.14
2022-10-05T05:49:46.539Z,93.52
2022-10-05T05:54:59.144Z,93.01
2022-10-05T06:00:05.907Z,92.51
2022-10-05T06:05:27.101Z,91.60
2022-10-05T06:10:48.541Z,90.67
2022-10-05T06:16:12.490Z,89.38
2022-10-05T06:21:24.866Z,88.24
2022-10-05T06:26:38.312Z,87.35
2022-10-05T06:31:57.881Z,86.48
2022-10-05T06:37:16.172Z,86.35
2022-10-05T06:42:49.902Z,85.79
2022-10-05T06:48:27.528Z,85.27
2022-10-05T06:53:48.654Z,84.48
2022-10-05T06:59:16.643Z,83.07
2022-10-05T07:04:31.270Z,80.59
2022-10-05T07:09:57.475Z,75.23
2022-10-05T07:15:06.112Z,69.29
2022-10-05T07:20:20.283Z,68.78
2022-10-05T07:25:26.909Z,69.21
2022-10-05T07:30:38.292Z,69.65
2022-10-05T07:36:12.411Z,70.30
2022-10-05T07:41:40.407Z,70.38
2022-10-05T07:47:32.666Z,69.16
2022-10-05T07:52:42.048Z,67.46
2022-10-05T07:58:03.052Z,64.99
2022-10-05T08:03:25.309Z,63.38
2022-10-05T08:08:31.698Z,61.99
2022-10-05T08:13:58.769Z,60.71
2022-10-05T08:19:19.394Z,59.95
2022-10-05T08:24:33.457Z,58.17
2022-10-05T08:29:48.545Z,59.20
2022-10-05T08:35:02.922Z,59.62
2022-10-05T08:40:18.631Z,57.92
2022-10-05T08:45:46.170Z,58.52
2022-10-05T08:51:15.090Z,61.06
2022-10-05T08:56:22.262Z,63.72
2022-10-05T09:01:31.104Z,65.89
2022-10-05T09:07:02.030Z,67.57
2022-10-05T09:12:17.123Z,68.91
2022-10-05T09:17:48.088Z,70.01
2022-10-05T09:23:46.593Z,70.30
2022-10-05T09:29:27.586Z,70.27
2022-10-05T09:34:49.539Z,70.18
2022-10-05T09:40:48.869Z,69.86
2022-10-05T09:46:00.704Z,69.44
2022-10-05T09:51:41.063Z,68.49
2022-10-05T09:57:17.866Z,67.63
2022-10-05T10:02:30.791Z,65.61
2022-10-05T10:07:42.821Z,63.12
2022-10-05T10:13:05.908Z,60.64
2022-10-05T10:18:28.770Z,56.83
2022-10-05T10:23:55.329Z,51.65
2022-10-05T10:29:20.126Z,47.34
2022-10-05T10:34:50.391Z,48.40
2022-10-05T10:40:30.475Z,48.37
2022-10-05T10:46:11.322Z,48.76
2022-10-05T10:51:30.035Z,50.29
2022-10-05T10:56:38.999Z,51.45
2022-10-05T11:02:00.678Z,52.56
2022-10-05T11:07:25.137Z,53.43
2022-10-05T11:12:43.707Z,52.07
2022-10-05T11:18:11.540Z,52.12
2022-10-05T11:23:28.429Z,53.24
2022-10-05T11:28:50.380Z,55.19
2022-10-05T11:34:28.509Z,55.71
2022-10-05T11:39:44.422Z,54.51
2022-10-05T11:45:08.725Z,53.13
2022-10-05T11:50:40.126Z,53.44
2022-10-05T11:56:27.477Z,52.90
2022-10-05T12:01:48.871Z,51.81
2022-10-05T12:07:21.599Z,50.71
2022-10-05T12:12:31.678Z,49.64
2022-10-05T12:18:00.780Z,49.98
2022-10-05T12:23:10.439Z,49.78
2022-10-05T12:28:23.844Z,51.14
2022-10-05T12:33:38.980Z,51.92
2022-10-05T12:38:58.438Z,52.03
2022-10-05T12:44:26.375Z,52.17
2022-10-05T12:49:41.656Z,50.72
2022-10-05T12:54:53.679Z,50.58
2022-10-05T13:00:13.385Z,51.39
2022-10-05T13:05:28.463Z,52.88
2022-10-05T13:11:03.106Z,54.46
2022-10-05T13:16:15.784Z,54.88
2022-10-05T13:21:48.860Z,54.72
2022-10-05T13:26:57.906Z,54.17
2022-10-05T13:32:08.223Z,54.53
2022-10-05T13:37:43.454Z,55.25
2022-10-05T13:43:24.292Z,56.04
2022-10-05T13:48:39.125Z,56.63
2022-10-05T13:54:14.282Z,56.89
2022-10-05T13:59:41.764Z,57.94
2022-10-05T14:04:44.669Z,58.92
2022-10-05T14:09:50.202Z,59.47
2022-10-05T14:14:58.364Z,60.33
2022-10-05T14:20:03.564Z,60.90
2022-10-05T14:25:09.495Z,61.34
2022-10-05T14:30:12.293Z,62.54
2022-10-05T14:35:18.420Z,63.59
2022-10-05T14:40:34.393Z,63.60
2022-10-05T14:46:02.875Z,63.18
2022-10-05T14:51:11.938Z,63.10
2022-10-05T14:56:26.721Z,63.50
2022-10-05T15:01:31.944Z,64.03
2022-10-05T15:06:40.149Z,64.83
2022-10-05T15:11:50.364Z,65.76
2022-10-05T15:16:57.861Z,66.60
2022-10-05T15:22:19.335Z,67.25
2022-10-05T15:27:31.376Z,68.06
2022-10-05T15:33:05.388Z,68.78
2022-10-05T15:38:21.379Z,69.31
2022-10-05T15:43:25.706Z,70.29
2022-10-05T15:49:08.646Z,71.46
2022-10-05T15:54:44.561Z,72.20
2022-10-05T15:59:58.622Z,73.00
2022-10-05T16:05:45.373Z,73.97
2022-10-05T16:10:48.673Z,75.06
2022-10-05T16:16:12.169Z,76.23
2022-10-05T16:21:46.191Z,76.85
2022-10-05T16:27:11.419Z,77.60
2022-10-05T16:32:22.247Z,78.19
2022-10-05T16:37:50.105Z,79.00
2022-10-05T16:42:58.416Z,79.65
2022-10-05T16:48:26.736Z,79.69
2022-10-05T16:53:37.623Z,79.95
2022-10-05T16:59:09.073Z,80.00
2022-10-05T17:04:39.958Z,80.08
2022-10-05T17:09:54.825Z,79.88
2022-10-05T17:15:19.865Z,80.09
2022-10-05T17:20:44.681Z,80.05
2022-10-05T17:26:27.112Z,79.57
2022-10-05T17:31:32.166Z,79.45
2022-10-05T17:37:00.057Z,79.32
2022-10-05T17:42:30.408Z,79.66
2022-10-05T17:47:58.299Z,79.60
2022-10-05T17:53:40.726Z,79.67
2022-10-05T17:58:54.819Z,79.79
2022-10-05T18:04:12.851Z,80.15
2022-10-05T18:09:20.818Z,80.77
2022-10-05T18:14:25.006Z,81.03
2022-10-05T18:19:31.702Z,81.38
2022-10-05T18:25:04.105Z,81.70
2022-10-05T18:30:18.988Z,82.65
2022-10-05T18:35:33.357Z,83.40
2022-10-05T18:41:03.549Z,84.10
2022-10-05T18:46:23.817Z,84.41
2022-10-05T18:52:14.177Z,84.95
2022-10-05T18:57:41.442Z,85.03
2022-10-05T19:02:54.445Z,85.12
2022-10-05T19:08:15.373Z,85.31
2022-10-05T19:13:43.473Z,85.64
2022-10-05T19:18:55.181Z,86.43
2022-10-05T19:24:38.157Z,86.60
2022-10-05T19:29:53.419Z,86.72
2022-10-05T19:35:09.328Z,86.86
2022-10-05T19:40:39.877Z,87.25
2022-10-05T19:46:08.016Z,88.11
2022-10-05T19:51:38.092Z,88.84
2022-10-05T19:56:53.103Z,88.39
2022-10-05T20:01:59.028Z,88.90
2022-10-05T20:07:02.902Z,89.33
2022-10-05T20:12:05.810Z,89.50
2022-10-05T20:17:47.027Z,89.97
2022-10-05T20:22:49.919Z,90.31
2022-10-05T20:27:57.442Z,90.21
2022-10-05T20:33:10.686Z,90.09
2022-10-05T20:38:13.589Z,89.83
2022-10-05T20:43:16.752Z,90.04
2022-10-05T20:48:19.704Z,90.18
2022-10-05T20:53:22.514Z,90.30
2022-10-05T20:58:25.631Z,90.37
2022-10-05T21:03:29.127Z,90.35
2022-10-05T21:08:32.034Z,90.58
2022-10-05T21:13:36.834Z,90.91
2022-10-05T21:18:40.646Z,90.97
2022-10-05T21:23:47.918Z,91.09
2022-10-05T21:28:50.867Z,90.83
2022-10-05T21:33:54.616Z,90.77
2022-10-05T21:38:57.652Z,90.93
2022-10-05T21:44:00.659Z,90.98
2022-10-05T21:49:04.125Z,91.29
2022-10-05T21:54:20.085Z,91.45
2022-10-05T21:59:28.581Z,91.57
2022-10-05T22:04:31.736Z,91.80
2022-10-05T22:09:34.632Z,91.68
2022-10-05T22:14:37.537Z,91.77
2022-10-05T22:19:40.821Z,91.50
2022-10-05T22:24:43.756Z,91.41
2022-10-05T22:29:46.662Z,91.52
2022-10-05T22:34:50.084Z,91.38
2022-10-05T22:39:55.337Z,91.58
2022-10-05T22:44:58.858Z,91.68
2022-10-05T22:50:02.382Z,91.70
2022-10-05T22:55:05.977Z,91.55
2022-10-05T23:00:10.896Z,91.49
2022-10-05T23:05:14.874Z,91.72
2022-10-05T23:10:19.499Z,91.84
2022-10-05T23:15:23.469Z,92.05
2022-10-05T23:20:26.358Z,92.07
2022-10-05T23:25:29.462Z,92.17
2022-10-05T23:30:32.515Z,91.96
2022-10-05T23:35:35.475Z,92.00
2022-10-05T23:40:38.280Z,91.88
2022-10-05T23:45:45.182Z,91.87
2022-10-05T23:50:50.129Z,91.87
2022-10-05T23:55:53.917Z,92.02
